Startpagina
METAR-TAF:

METAR-TAF

Vliegvelden :

Katima Mulilo, Namibië

breedte: 17-38-04S, lengte: 024-10-36E, hoogte: 985 m

Actueel weer

Dit bericht is 25 minuten geleden gemaakt, om 01:00 UTC
Wind 2 kt uit het oostnoordoosten
Temperatuur 22°C
Vochtigheid 94%
Druk 1016 hPa

METAR: FYKM 290100Z AUTO 07002KT //// // ////// 22/21 Q1016

Tijdstip: 03:25 (01:25 UTC)

Verwachting

Dit bericht is 2 uur en het 25 minuten geleden gemaakt, om 23:00 UTC
Verwachting geldig van 29 om 00 UTC tot 29 om 09 UTC
Wind 3 kt uit het noordoosten
Zicht 10 km of meer
Verspreide wolken op 2000 ft

TAF: FYKM 282300Z 2900/2909 05003KT 9999 SCT020

Waarnemingen en weersverwachtingen van meer dan 4000 vliegvelden (METAR en TAF).

De beschikbare stations zijn de gele en rode punten op de kaart.

Ga met uw muis naar het station om de naam te zien.

Klik dan om waarnemingen en weersverwachtingen te zien.

kaart wijzigen: klik op de groene knoppen met een zwart kruis om in te zoomen, op de groene knop met een streepje om uit te zoomen of op de groene pijlen voor aangrenzende kaarten.


METAR-TAF: